Moon Township, Pennsylvania
Current Conditions -  °F | °C
As of 2:51 AM on Sunday 26 Oct 2014 (Local Time) from KPIT Reporting Station
Clear Clear  
Wind Chill: 45°   Ceiling: Unl
Heat Index: 49°   Visibility: 10mi
Dew Point: 32°   Wind: 9mph
Humidity: 52%   Direction: 280°W
Pressure: 29.8"   Gusts: NA
Location:  40.5042°N, 80.1934°W
Report Text: KPIT 260651Z 28008KT 10SM CLR 09/00 A2980 RMK AO2 SLP097 T00940000
Loading
Personal Weather Stations






























Interactive Weather Map
Tropical Storm Tracking
New forecast layout! Learn more

10-Day Weather Forecast

Advertisements
Track Severe Weather on mobile